VTUU/UBP METAR and TAF weather

Enter ICAO airport designator
Station Type Date Time Source
VTUU METAR 2020/09/19 06:00 UTC NOAA

VTUU 190600Z 13005KT 090V200 9999 BKN025 OVC080 27/26 Q1005 TEMPO FM0630 4500 TSRA


Station Type Date Time Source
VTUU Decoded METAR 2020/09/19 06:00 UTC NOAA

Ubon Ratchathani, Thailand (VTUU) 15-15N 104-52E 127M
Sep 19, 2020 - 02:00 AM EDT / 2020.09.19 0600 UTC
Wind: from the SE (130 degrees) at 6 MPH (5 KT) (direction variable):0
Visibility: greater than 7 mile(s):0
Sky conditions: overcast
Temperature: 80 F (27 C)
Dew Point: 78 F (26 C)
Relative Humidity: 94%
Pressure (altimeter): 29.68 in. Hg (1005 hPa)
ob: VTUU 190600Z 13005KT 090V200 9999 BKN025 OVC080 27/26 Q1005 TEMPO FM0630 4500 TSRA
cycle: 6

Station Type Date Time Source
VTUU TAF 2020/09/19 06:36 UTC NOAA

TAF VTUU 190500Z 1906/2006 18005KT 9000 BKN020
TEMPO 1907/1911 20015KT 4000 TSRA SCT020 BKN025

Example: see airport list